TimeEST,TemperatureF,Dew PointF,Humidity,Sea Level PressureIn,VisibilityMPH,Wind Direction,Wind SpeedMPH,Gust SpeedMPH,PrecipitationIn,Events,Conditions,WindDirDegrees,DateUTC
12:54 AM,27.0,21.9,81,30.39,10.0,South,4.6,-,N/A,,Clear,180,2012-12-13 05:54:00
1:54 AM,26.1,21.9,84,30.39,10.0,SSW,5.8,-,N/A,,Clear,200,2012-12-13 06:54:00
2:54 AM,27.0,21.9,81,30.40,10.0,South,3.5,-,N/A,,Clear,190,2012-12-13 07:54:00
3:54 AM,25.0,21.0,85,30.40,10.0,South,5.8,-,N/A,,Clear,170,2012-12-13 08:54:00
4:54 AM,26.1,21.9,84,30.39,10.0,South,5.8,-,N/A,,Clear,170,2012-12-13 09:54:00
5:54 AM,26.1,21.0,81,30.40,10.0,South,8.1,-,N/A,,Clear,170,2012-12-13 10:54:00
6:54 AM,26.6,21.2,80,30.37,10.0,South,6.9,-,N/A,,Clear,180,2012-12-13 11:54:00
7:54 AM,25.0,21.0,85,30.41,10.0,South,4.6,-,N/A,,Partly Cloudy,190,2012-12-13 12:54:00
8:54 AM,28.9,24.1,82,30.41,10.0,SSW,3.5,-,N/A,,Scattered Clouds,210,2012-12-13 13:54:00
9:54 AM,33.1,27.0,78,30.40,10.0,SSW,10.4,-,N/A,,Scattered Clouds,200,2012-12-13 14:54:00
10:54 AM,36.0,28.0,73,30.40,10.0,SSW,11.5,-,N/A,,Scattered Clouds,210,2012-12-13 15:54:00
11:54 AM,39.0,28.0,65,30.37,10.0,SSW,12.7,-,N/A,,Scattered Clouds,210,2012-12-13 16:54:00
12:54 PM,42.1,28.0,58,30.36,10.0,SW,10.4,-,N/A,,Scattered Clouds,220,2012-12-13 17:54:00
1:54 PM,43.0,27.0,53,30.33,10.0,SSW,11.5,-,N/A,,Scattered Clouds,200,2012-12-13 18:54:00
2:54 PM,44.1,27.0,51,30.30,10.0,SSW,12.7,-,N/A,,Mostly Cloudy,200,2012-12-13 19:54:00
3:54 PM,44.1,28.0,53,30.27,10.0,South,12.7,-,N/A,,Mostly Cloudy,180,2012-12-13 20:54:00
4:54 PM,39.9,28.0,63,30.26,10.0,South,10.4,-,N/A,,Mostly Cloudy,170,2012-12-13 21:54:00
5:54 PM,35.6,26.6,70,30.24,10.0,South,10.4,-,N/A,,Scattered Clouds,190,2012-12-13 22:54:00
7:54 PM,35.6,26.6,70,30.21,10.0,South,11.5,-,N/A,,Partly Cloudy,180,2012-12-14 00:54:00
8:54 PM,35.1,27.0,72,30.24,10.0,South,11.5,-,N/A,,Partly Cloudy,190,2012-12-14 01:54:00
9:54 PM,34.0,27.0,75,30.22,10.0,South,10.4,-,N/A,,Clear,190,2012-12-14 02:54:00
10:54 PM,35.1,26.1,70,30.21,10.0,SSW,10.4,-,N/A,,Scattered Clouds,200,2012-12-14 03:54:00
11:54 PM,30.9,26.1,82,30.25,10.0,West,5.8,-,N/A,,Scattered Clouds,260,2012-12-14 04:54:00